createdAt,value
2018-12-06T00:00:20.829Z,7.40
2018-12-06T00:02:22.952Z,7.22
2018-12-06T00:04:25.179Z,7.12
2018-12-06T00:06:27.301Z,7.42
2018-12-06T00:08:29.668Z,7.03
2018-12-06T00:10:31.780Z,9.15
2018-12-06T00:12:33.904Z,7.45
2018-12-06T00:14:36.049Z,7.70
2018-12-06T00:16:38.152Z,8.13
2018-12-06T00:18:40.268Z,7.60
2018-12-06T00:20:42.452Z,8.18
2018-12-06T00:22:44.585Z,8.30
2018-12-06T00:24:46.695Z,8.73
2018-12-06T00:26:48.820Z,8.10
2018-12-06T00:28:51.025Z,7.50
2018-12-06T00:30:53.150Z,8.13
2018-12-06T00:32:55.248Z,7.30
2018-12-06T00:34:57.369Z,8.00
2018-12-06T00:36:59.611Z,8.13
2018-12-06T00:39:01.835Z,8.40
2018-12-06T00:41:03.972Z,8.38
2018-12-06T00:43:06.124Z,7.40
2018-12-06T00:45:08.336Z,8.00
2018-12-06T00:47:10.451Z,8.48
2018-12-06T00:49:12.675Z,7.47
2018-12-06T00:51:14.908Z,7.62
2018-12-06T00:53:17.195Z,7.80
2018-12-06T00:55:19.324Z,7.33
2018-12-06T00:57:21.449Z,6.80
2018-12-06T00:59:23.908Z,7.65
2018-12-06T01:01:26.017Z,7.97
2018-12-06T01:03:28.136Z,8.10
2018-12-06T01:05:30.466Z,7.85
2018-12-06T01:07:32.699Z,8.13
2018-12-06T01:09:34.916Z,8.10
2018-12-06T01:11:39.400Z,7.28
2018-12-06T01:13:41.520Z,7.53
2018-12-06T01:15:43.631Z,8.18
2018-12-06T01:17:45.873Z,7.45
2018-12-06T01:19:47.989Z,7.42
2018-12-06T01:21:50.109Z,7.47
2018-12-06T01:23:52.303Z,9.65
2018-12-06T01:25:54.430Z,7.30
2018-12-06T01:27:56.549Z,8.10
2018-12-06T01:29:58.776Z,6.90
2018-12-06T01:32:00.879Z,7.28
2018-12-06T01:34:03.132Z,7.53
2018-12-06T01:36:05.386Z,7.55
2018-12-06T01:38:07.548Z,7.60
2018-12-06T01:40:09.656Z,7.90
2018-12-06T01:42:11.871Z,8.95
2018-12-06T01:44:13.979Z,6.45
2018-12-06T01:46:16.088Z,7.47
2018-12-06T01:48:18.378Z,8.23
2018-12-06T01:50:20.564Z,7.42
2018-12-06T01:52:22.780Z,8.43
2018-12-06T01:54:25.543Z,7.05
2018-12-06T01:56:27.680Z,7.55
2018-12-06T01:58:29.787Z,7.30
2018-12-06T02:00:32.248Z,8.10
2018-12-06T02:02:34.368Z,7.70
2018-12-06T02:04:36.472Z,8.93
2018-12-06T02:06:38.856Z,8.78
2018-12-06T02:08:40.976Z,7.72
2018-12-06T02:10:43.236Z,8.25
2018-12-06T02:12:45.631Z,8.25
2018-12-06T02:14:47.866Z,8.63
2018-12-06T02:16:50.184Z,7.92
2018-12-06T02:18:52.737Z,7.25
2018-12-06T02:20:54.952Z,7.35
2018-12-06T02:22:57.068Z,8.30
2018-12-06T02:24:59.335Z,8.13
2018-12-06T02:27:01.681Z,8.83
2018-12-06T02:29:03.811Z,7.80
2018-12-06T02:31:06.041Z,8.18
2018-12-06T02:33:08.170Z,7.85
2018-12-06T02:35:10.438Z,8.40
2018-12-06T02:37:12.672Z,8.73
2018-12-06T02:39:14.887Z,8.65
2018-12-06T02:41:17.357Z,7.92
2018-12-06T02:43:19.476Z,8.95
2018-12-06T02:45:21.583Z,8.20
2018-12-06T02:47:23.704Z,9.25
2018-12-06T02:49:25.812Z,9.45
2018-12-06T02:51:27.929Z,8.45
2018-12-06T02:53:30.073Z,8.88
2018-12-06T02:55:32.227Z,8.15
2018-12-06T02:57:34.325Z,8.75
2018-12-06T02:59:36.523Z,8.58
2018-12-06T03:01:38.638Z,8.03
2018-12-06T03:03:40.747Z,9.23
2018-12-06T03:05:42.980Z,10.32
2018-12-06T03:07:45.112Z,9.98
2018-12-06T03:09:47.441Z,8.88
2018-12-06T03:11:49.670Z,8.80
2018-12-06T03:13:51.953Z,9.58
2018-12-06T03:15:54.063Z,9.85
2018-12-06T03:17:56.182Z,8.70
2018-12-06T03:19:58.338Z,10.53
2018-12-06T03:22:00.551Z,10.10
2018-12-06T03:24:02.783Z,10.53
2018-12-06T03:26:04.901Z,10.05
2018-12-06T03:28:07.008Z,9.90
2018-12-06T03:30:09.359Z,9.95
2018-12-06T03:32:11.673Z,11.03
2018-12-06T03:34:13.792Z,9.85
2018-12-06T03:36:15.923Z,9.50
2018-12-06T03:38:18.312Z,10.40
2018-12-06T03:40:20.428Z,11.70
2018-12-06T03:42:22.548Z,10.20
2018-12-06T03:44:24.924Z,10.03
2018-12-06T03:46:27.179Z,10.60
2018-12-06T03:48:29.293Z,10.18
2018-12-06T03:50:31.436Z,10.82
2018-12-06T03:52:33.752Z,11.95
2018-12-06T03:54:35.984Z,11.50
2018-12-06T03:56:38.424Z,10.65
2018-12-06T03:58:40.531Z,10.35
2018-12-06T04:00:42.653Z,10.38
2018-12-06T04:02:44.937Z,10.88
2018-12-06T04:04:47.162Z,11.50
2018-12-06T04:06:49.384Z,11.50
2018-12-06T04:08:51.611Z,10.48
2018-12-06T04:10:53.845Z,11.25
2018-12-06T04:12:55.963Z,10.58
2018-12-06T04:14:58.078Z,10.53
2018-12-06T04:17:00.615Z,11.15
2018-12-06T04:19:02.820Z,12.23
2018-12-06T04:21:04.932Z,10.63
2018-12-06T04:23:07.164Z,11.85
2018-12-06T04:25:09.290Z,11.28
2018-12-06T04:27:11.772Z,10.80
2018-12-06T04:29:14.096Z,10.70
2018-12-06T04:31:16.212Z,11.15
2018-12-06T04:33:18.696Z,11.18
2018-12-06T04:35:20.809Z,11.20
2018-12-06T04:37:23.020Z,11.65
2018-12-06T04:39:25.174Z,11.75
2018-12-06T04:41:27.435Z,12.47
2018-12-06T04:43:29.545Z,16.40
2018-12-06T04:45:31.907Z,13.10
2018-12-06T04:47:34.133Z,13.20
2018-12-06T04:49:36.353Z,12.45
2018-12-06T04:51:38.574Z,12.35
2018-12-06T04:53:40.783Z,12.15
2018-12-06T04:55:43.143Z,12.47
2018-12-06T04:57:45.396Z,13.20
2018-12-06T04:59:47.535Z,13.45
2018-12-06T05:01:49.913Z,12.70
2018-12-06T05:03:52.286Z,12.73
2018-12-06T05:05:54.537Z,12.43
2018-12-06T05:07:56.850Z,12.70
2018-12-06T05:09:58.997Z,12.78
2018-12-06T05:12:01.131Z,14.00
2018-12-06T05:14:03.373Z,15.45
2018-12-06T05:16:05.612Z,13.05
2018-12-06T05:18:07.744Z,14.43
2018-12-06T05:20:09.884Z,13.32
2018-12-06T05:22:12.008Z,11.55
2018-12-06T05:24:14.208Z,13.78
2018-12-06T05:26:16.320Z,13.30
2018-12-06T05:28:18.475Z,13.80
2018-12-06T05:30:21.673Z,13.45
2018-12-06T05:32:23.785Z,13.20
2018-12-06T05:34:25.908Z,11.90
2018-12-06T05:36:28.032Z,13.60
2018-12-06T05:38:30.188Z,14.28
2018-12-06T05:40:32.428Z,14.80
2018-12-06T05:42:34.681Z,14.35
2018-12-06T05:44:37.175Z,14.45
2018-12-06T05:46:39.316Z,14.55
2018-12-06T05:48:41.415Z,13.18
2018-12-06T05:50:43.528Z,15.90
2018-12-06T05:52:45.652Z,14.60
2018-12-06T05:54:47.756Z,13.83
2018-12-06T05:56:49.885Z,13.50
2018-12-06T05:58:52.247Z,16.37
2018-12-06T06:00:54.380Z,13.85
2018-12-06T06:02:56.531Z,15.72
2018-12-06T06:04:59.010Z,13.93
2018-12-06T06:07:01.249Z,15.35
2018-12-06T06:09:05.112Z,16.15
2018-12-06T06:11:07.296Z,14.50
2018-12-06T06:13:09.419Z,16.25
2018-12-06T06:15:11.676Z,15.25
2018-12-06T06:17:14.192Z,16.35
2018-12-06T06:19:16.360Z,15.23
2018-12-06T06:21:19.225Z,14.53
2018-12-06T06:23:21.356Z,15.55
2018-12-06T06:25:23.820Z,16.40
2018-12-06T06:27:26.425Z,16.90
2018-12-06T06:29:28.712Z,15.15
2018-12-06T06:31:30.831Z,13.88
2018-12-06T06:33:32.956Z,15.85
2018-12-06T06:35:35.208Z,15.80
2018-12-06T06:37:37.484Z,15.90
2018-12-06T06:44:24.509Z,16.17
2018-12-06T06:46:26.665Z,15.25
2018-12-06T06:48:28.807Z,15.85
2018-12-06T06:50:30.964Z,15.38
2018-12-06T06:52:33.125Z,16.40
2018-12-06T06:54:35.899Z,16.62
2018-12-06T06:56:38.211Z,15.88
2018-12-06T06:58:54.636Z,16.30
2018-12-06T07:00:56.879Z,15.43
2018-12-06T07:03:12.780Z,16.93
2018-12-06T07:05:15.055Z,16.55
2018-12-06T07:07:17.388Z,16.52
2018-12-06T07:09:19.807Z,16.20
2018-12-06T07:16:04.312Z,16.15
2018-12-06T07:18:06.665Z,16.95
2018-12-06T07:20:08.839Z,16.15
2018-12-06T07:22:11.065Z,17.80
2018-12-06T07:24:13.456Z,15.90
2018-12-06T07:26:15.599Z,17.25
2018-12-06T07:28:20.771Z,17.70
2018-12-06T07:30:22.936Z,17.10
2018-12-06T07:32:25.217Z,17.95
2018-12-06T07:34:27.472Z,17.92
2018-12-06T07:36:29.672Z,18.52
2018-12-06T07:38:31.985Z,18.07
2018-12-06T07:40:34.277Z,17.75
2018-12-06T07:42:36.540Z,18.10
2018-12-06T07:44:38.705Z,21.30
2018-12-06T07:46:41.412Z,19.17
2018-12-06T07:48:43.576Z,19.98
2018-12-06T07:50:45.725Z,20.90
2018-12-06T07:52:47.955Z,21.48
2018-12-06T07:54:50.111Z,19.52
2018-12-06T07:56:52.335Z,18.60
2018-12-06T07:58:54.505Z,19.65
2018-12-06T08:00:56.944Z,19.05
2018-12-06T08:02:59.084Z,19.42
2018-12-06T08:05:01.270Z,20.62
2018-12-06T08:07:03.579Z,20.00
2018-12-06T08:09:06.965Z,19.52
2018-12-06T08:11:09.151Z,20.72
2018-12-06T08:13:11.362Z,21.62
2018-12-06T08:15:13.511Z,21.93
2018-12-06T08:17:15.884Z,21.55
2018-12-06T08:19:18.032Z,22.55
2018-12-06T08:21:20.221Z,22.90
2018-12-06T08:23:22.400Z,22.75
2018-12-06T08:25:24.902Z,21.93
2018-12-06T08:27:27.252Z,25.40
2018-12-06T08:29:29.494Z,25.35
2018-12-06T08:31:31.868Z,27.25
2018-12-06T08:33:34.023Z,25.85
2018-12-06T08:35:36.252Z,25.17
2018-12-06T08:37:38.452Z,27.45
2018-12-06T08:39:40.742Z,26.30
2018-12-06T08:41:43.143Z,28.32
2018-12-06T08:43:45.476Z,29.63
2018-12-06T08:45:47.652Z,28.38
2018-12-06T08:47:49.803Z,27.22
2018-12-06T08:49:52.012Z,28.62
2018-12-06T08:51:54.186Z,27.40
2018-12-06T08:53:56.341Z,28.92
2018-12-06T08:55:58.586Z,28.73
2018-12-06T08:58:00.848Z,28.45
2018-12-06T09:00:03.383Z,30.35
2018-12-06T09:02:05.720Z,28.60
2018-12-06T09:04:07.949Z,33.00
2018-12-06T09:06:10.222Z,29.12
2018-12-06T09:08:12.545Z,29.30
2018-12-06T09:10:14.783Z,29.00
2018-12-06T09:12:17.119Z,30.08
2018-12-06T09:14:19.296Z,29.98
2018-12-06T09:16:21.453Z,28.85
2018-12-06T09:18:23.829Z,31.37
2018-12-06T09:20:26.025Z,29.72
2018-12-06T09:22:28.168Z,29.15
2018-12-06T09:24:30.836Z,29.80
2018-12-06T09:26:33.193Z,29.00
2018-12-06T09:28:35.387Z,26.80
2018-12-06T09:30:37.720Z,29.50
2018-12-06T09:32:39.965Z,29.37
2018-12-06T09:34:42.086Z,28.67
2018-12-06T09:36:44.533Z,31.73
2018-12-06T09:38:46.933Z,28.90
2018-12-06T09:40:49.340Z,28.92
2018-12-06T09:42:51.848Z,27.75
2018-12-06T09:44:54.063Z,26.65
2018-12-06T09:46:56.228Z,29.07
2018-12-06T09:48:58.577Z,27.37
2018-12-06T09:51:00.884Z,29.57
2018-12-06T09:53:03.377Z,28.45
2018-12-06T09:55:05.669Z,27.20
2018-12-06T09:57:07.911Z,28.87
2018-12-06T09:59:10.194Z,29.42
2018-12-06T10:01:12.464Z,30.45
2018-12-06T10:03:14.624Z,29.90
2018-12-06T10:05:18.558Z,29.63
2018-12-06T10:07:21.362Z,28.32
2018-12-06T10:09:23.532Z,29.07
2018-12-06T10:11:25.749Z,29.20
2018-12-06T10:13:28.015Z,29.15
2018-12-06T10:15:30.375Z,28.73
2018-12-06T10:17:32.532Z,29.15
2018-12-06T10:19:34.956Z,28.80
2018-12-06T10:21:37.216Z,27.48
2018-12-06T10:23:39.526Z,28.20
2018-12-06T10:25:41.972Z,29.00
2018-12-06T10:27:44.176Z,29.37
2018-12-06T10:29:46.325Z,31.50
2018-12-06T10:31:48.493Z,30.52
2018-12-06T10:33:51.560Z,31.40
2018-12-06T10:35:53.708Z,30.10
2018-12-06T10:37:55.996Z,32.25
2018-12-06T10:39:58.160Z,32.48
2018-12-06T10:42:00.325Z,32.38
2018-12-06T10:44:02.720Z,31.45
2018-12-06T10:46:05.156Z,32.38
2018-12-06T10:48:07.412Z,32.83
2018-12-06T10:50:09.588Z,34.00
2018-12-06T10:52:12.242Z,33.50
2018-12-06T10:54:14.713Z,31.35
2018-12-06T10:56:16.903Z,35.55
2018-12-06T10:58:19.512Z,33.60
2018-12-06T11:00:27.593Z,33.90
2018-12-06T11:02:55.620Z,33.58
2018-12-06T11:04:57.954Z,33.55
2018-12-06T11:07:00.105Z,36.70
2018-12-06T11:09:04.220Z,34.60
2018-12-06T11:11:06.544Z,35.48
2018-12-06T11:13:08.706Z,35.13
2018-12-06T11:15:10.855Z,36.00
2018-12-06T11:17:13.057Z,31.68
2018-12-06T11:19:15.317Z,35.23
2018-12-06T11:21:17.600Z,34.63
2018-12-06T11:23:20.016Z,35.58
2018-12-06T11:25:22.197Z,36.08
2018-12-06T11:27:24.444Z,35.55
2018-12-06T11:29:26.632Z,38.73
2018-12-06T11:31:28.806Z,35.35
2018-12-06T11:33:31.075Z,38.13
2018-12-06T11:35:33.488Z,34.30
2018-12-06T11:37:35.667Z,34.98
2018-12-06T11:39:37.837Z,38.48
2018-12-06T11:41:43.265Z,37.40
2018-12-06T11:43:44.418Z,34.75
2018-12-06T11:45:46.718Z,36.70
2018-12-06T11:47:48.916Z,35.78
2018-12-06T11:49:51.237Z,35.40
2018-12-06T11:51:53.515Z,33.73
2018-12-06T11:53:55.782Z,35.05
2018-12-06T11:55:57.986Z,32.93
2018-12-06T11:58:00.182Z,32.73
2018-12-06T12:00:03.098Z,32.73
2018-12-06T12:02:10.058Z,33.38
2018-12-06T12:04:09.686Z,35.50
2018-12-06T12:06:11.875Z,33.95
2018-12-06T12:08:14.230Z,35.40
2018-12-06T12:10:16.404Z,34.87
2018-12-06T12:12:18.572Z,31.13
2018-12-06T12:14:20.804Z,34.95
2018-12-06T12:16:22.976Z,34.17
2018-12-06T12:18:25.140Z,35.35
2018-12-06T12:20:27.603Z,33.40
2018-12-06T12:22:29.769Z,33.58
2018-12-06T12:24:31.930Z,35.23
2018-12-06T12:26:34.299Z,36.53
2018-12-06T12:28:36.519Z,33.23
2018-12-06T12:30:38.757Z,33.70
2018-12-06T12:32:41.081Z,37.78
2018-12-06T12:34:43.257Z,33.10
2018-12-06T12:36:45.430Z,35.17
2018-12-06T12:38:48.123Z,38.70
2018-12-06T12:40:50.695Z,35.50
2018-12-06T12:42:53.003Z,37.38
2018-12-06T12:44:55.479Z,36.63
2018-12-06T12:46:57.665Z,35.67
2018-12-06T12:49:00.326Z,35.60
2018-12-06T12:51:02.600Z,36.70
2018-12-06T12:53:04.857Z,33.83
2018-12-06T12:55:07.153Z,38.07
2018-12-06T12:57:09.321Z,38.80
2018-12-06T12:59:11.609Z,34.17
2018-12-06T13:01:14.068Z,33.57
2018-12-06T13:03:16.357Z,38.27
2018-12-06T13:05:18.510Z,33.10
2018-12-06T13:07:20.725Z,34.27
2018-12-06T13:09:25.871Z,35.57
2018-12-06T13:11:28.034Z,36.37
2018-12-06T13:13:30.356Z,33.87
2018-12-06T13:15:32.676Z,32.17
2018-12-06T13:17:34.945Z,34.00
2018-12-06T13:25:36.768Z,35.03
2018-12-06T13:27:39.153Z,37.70
2018-12-06T13:29:41.461Z,33.67
2018-12-06T13:31:43.842Z,38.30
2018-12-06T13:33:46.124Z,37.70
2018-12-06T13:35:48.263Z,39.53
2018-12-06T13:37:50.748Z,40.43
2018-12-06T13:39:56.247Z,36.43
2018-12-06T13:41:58.508Z,39.30
2018-12-06T13:44:00.672Z,35.50
2018-12-06T13:46:03.199Z,39.47
2018-12-06T13:48:05.651Z,43.97
2018-12-06T13:50:07.947Z,41.00
2018-12-06T13:52:10.121Z,37.67
2018-12-06T13:54:12.510Z,43.77
2018-12-06T13:56:14.695Z,39.00
2018-12-06T13:58:16.875Z,41.70
2018-12-06T14:00:19.053Z,40.60
2018-12-06T14:02:21.298Z,39.27
2018-12-06T14:04:23.586Z,36.43
2018-12-06T14:06:25.734Z,39.20
2018-12-06T14:08:39.936Z,39.50
2018-12-06T14:10:42.776Z,36.37
2018-12-06T14:12:44.992Z,41.30
2018-12-06T14:14:47.231Z,39.10
2018-12-06T14:16:49.759Z,37.63
2018-12-06T14:18:51.944Z,37.23
2018-12-06T14:20:54.121Z,39.57
2018-12-06T14:22:56.420Z,38.50
2018-12-06T14:24:58.610Z,39.33
2018-12-06T14:27:00.813Z,40.40
2018-12-06T14:29:03.379Z,39.17
2018-12-06T14:31:05.676Z,38.30
2018-12-06T14:33:07.856Z,39.87
2018-12-06T14:35:11.987Z,38.93
2018-12-06T14:37:14.150Z,39.70
2018-12-06T14:39:16.460Z,41.90
2018-12-06T14:41:18.916Z,38.63
2018-12-06T14:43:21.232Z,37.80
2018-12-06T14:45:23.496Z,41.27
2018-12-06T14:47:25.925Z,40.90
2018-12-06T14:49:28.200Z,42.30
2018-12-06T14:51:30.436Z,43.80
2018-12-06T14:53:32.786Z,45.40
2018-12-06T14:55:40.810Z,42.47
2018-12-06T14:57:43.068Z,43.53
2018-12-06T14:59:45.379Z,40.40
2018-12-06T15:01:47.669Z,40.57
2018-12-06T15:03:49.972Z,34.17
2018-12-06T15:05:52.177Z,38.30
2018-12-06T15:07:54.372Z,39.10
2018-12-06T15:09:56.578Z,39.50
2018-12-06T15:11:58.788Z,42.00
2018-12-06T15:14:00.984Z,43.90
2018-12-06T15:16:03.232Z,36.93
2018-12-06T15:18:05.422Z,42.07
2018-12-06T15:20:07.732Z,39.80
2018-12-06T15:22:09.941Z,41.00
2018-12-06T15:24:12.260Z,40.97
2018-12-06T15:26:14.471Z,39.60
2018-12-06T15:28:16.625Z,43.40
2018-12-06T15:30:18.984Z,43.10
2018-12-06T15:32:21.174Z,41.10
2018-12-06T15:34:23.354Z,42.17
2018-12-06T15:36:26.496Z,38.90
2018-12-06T15:38:28.807Z,43.30
2018-12-06T15:40:31.112Z,43.37
2018-12-06T15:42:33.333Z,38.93
2018-12-06T15:44:35.532Z,42.17
2018-12-06T15:46:37.799Z,40.73
2018-12-06T15:48:40.030Z,35.70
2018-12-06T15:50:42.202Z,37.93
2018-12-06T15:52:44.392Z,42.83
2018-12-06T15:57:08.218Z,37.83
2018-12-06T15:59:10.455Z,36.33
2018-12-06T16:01:12.667Z,38.17
2018-12-06T16:03:14.856Z,37.30
2018-12-06T16:05:17.006Z,39.03
2018-12-06T16:07:19.235Z,42.37
2018-12-06T16:09:21.465Z,41.03
2018-12-06T16:11:23.660Z,42.10
2018-12-06T16:13:26.004Z,36.47
2018-12-06T16:15:28.157Z,38.97
2018-12-06T16:17:30.366Z,38.10
2018-12-06T16:19:32.719Z,37.83
2018-12-06T16:21:35.018Z,36.30
2018-12-06T16:23:37.221Z,34.90
2018-12-06T16:25:39.857Z,36.57
2018-12-06T16:27:42.026Z,35.83
2018-12-06T16:29:51.374Z,35.00
2018-12-06T16:31:48.891Z,37.67
2018-12-06T16:33:51.259Z,37.23
2018-12-06T16:35:53.463Z,34.83
2018-12-06T16:37:55.783Z,37.07
2018-12-06T16:39:58.077Z,34.67
2018-12-06T16:42:00.335Z,37.07
2018-12-06T16:44:03.235Z,33.50
2018-12-06T16:46:05.560Z,35.00
2018-12-06T16:48:07.767Z,34.40
2018-12-06T16:50:10.068Z,34.70
2018-12-06T16:52:12.535Z,31.43
2018-12-06T16:54:14.795Z,35.00
2018-12-06T16:56:29.930Z,33.70
2018-12-06T16:58:32.263Z,32.07
2018-12-06T17:00:34.443Z,29.90
2018-12-06T17:02:36.784Z,30.37
2018-12-06T17:04:38.986Z,31.90
2018-12-06T17:06:41.183Z,32.50
2018-12-06T17:08:43.377Z,29.80
2018-12-06T17:10:45.560Z,30.77
2018-12-06T17:12:47.777Z,30.77
2018-12-06T17:14:49.960Z,32.10
2018-12-06T17:16:52.201Z,35.77
2018-12-06T17:18:54.387Z,33.00
2018-12-06T17:20:56.756Z,33.90
2018-12-06T17:22:59.076Z,33.07
2018-12-06T17:25:01.344Z,32.40
2018-12-06T17:39:02.131Z,34.60
2018-12-06T17:41:04.351Z,32.80
2018-12-06T17:43:06.726Z,32.67
2018-12-06T17:45:09.713Z,30.47
2018-12-06T17:47:11.946Z,28.40
2018-12-06T17:49:14.275Z,31.13
2018-12-06T17:51:16.523Z,28.30
2018-12-06T17:53:18.727Z,30.43
2018-12-06T17:55:21.584Z,27.27
2018-12-06T17:57:23.808Z,24.57
2018-12-06T17:59:26.053Z,25.83
2018-12-06T18:01:28.497Z,25.13
2018-12-06T18:03:30.763Z,29.50
2018-12-06T18:05:33.063Z,25.33
2018-12-06T18:07:35.351Z,25.70
2018-12-06T18:09:37.773Z,28.63
2018-12-06T18:11:40.650Z,26.83
2018-12-06T18:13:43.139Z,27.13
2018-12-06T18:15:45.630Z,28.27
2018-12-06T18:17:48.228Z,28.47
2018-12-06T18:19:50.525Z,26.57
2018-12-06T18:21:52.858Z,26.10
2018-12-06T18:23:55.299Z,26.43
2018-12-06T18:25:57.516Z,27.73
2018-12-06T18:27:59.833Z,27.07
2018-12-06T18:30:02.298Z,27.97
2018-12-06T18:32:05.143Z,28.27
2018-12-06T18:34:08.355Z,29.60
2018-12-06T18:36:10.634Z,30.10
2018-12-06T18:38:14.398Z,29.00
2018-12-06T18:40:16.846Z,29.80
2018-12-06T18:42:19.410Z,27.20
2018-12-06T18:44:21.616Z,31.33
2018-12-06T18:46:23.812Z,29.33
2018-12-06T18:48:26.185Z,29.90
2018-12-06T18:50:28.512Z,29.10
2018-12-06T18:52:30.694Z,28.67
2018-12-06T18:54:33.196Z,30.50
2018-12-06T18:56:35.466Z,29.70
2018-12-06T18:58:37.662Z,31.50
2018-12-06T19:00:40.392Z,30.20
2018-12-06T19:02:42.688Z,29.30
2018-12-06T19:04:44.869Z,28.77
2018-12-06T19:06:47.162Z,28.23
2018-12-06T19:08:49.445Z,30.10
2018-12-06T19:10:51.648Z,28.63
2018-12-06T19:12:53.965Z,29.13
2018-12-06T19:14:56.177Z,31.87
2018-12-06T19:16:58.493Z,34.90
2018-12-06T19:19:00.904Z,30.13
2018-12-06T19:21:03.309Z,31.73
2018-12-06T22:34:37.112Z,31.37
2018-12-06T22:36:39.341Z,28.03
2018-12-06T22:38:41.620Z,32.20
2018-12-06T22:40:43.863Z,30.47
2018-12-06T22:42:46.101Z,33.60
2018-12-06T22:44:48.377Z,26.27
2018-12-06T22:46:50.605Z,31.37
2018-12-06T22:48:52.964Z,32.67
2018-12-06T22:50:55.410Z,29.37
2018-12-06T22:52:57.644Z,30.70
2018-12-06T22:54:59.951Z,32.37
2018-12-06T22:57:02.223Z,28.30
2018-12-06T22:59:04.575Z,30.60
2018-12-06T23:01:09.356Z,35.60
2018-12-06T23:03:12.175Z,31.27
2018-12-06T23:05:14.400Z,28.77
2018-12-06T23:07:16.651Z,32.63
2018-12-06T23:09:18.908Z,28.17
2018-12-06T23:11:21.267Z,33.57
2018-12-06T23:13:23.506Z,29.47
2018-12-06T23:15:26.057Z,28.70
2018-12-06T23:17:28.295Z,31.03
2018-12-06T23:19:30.538Z,27.83
2018-12-06T23:21:33.160Z,30.43
2018-12-06T23:23:35.382Z,32.80
2018-12-06T23:25:37.615Z,32.13
2018-12-06T23:27:39.851Z,33.90
2018-12-06T23:29:42.071Z,30.87
2018-12-06T23:31:44.199Z,30.70
2018-12-06T23:33:46.463Z,32.33
2018-12-06T23:35:48.592Z,28.97
2018-12-06T23:37:50.823Z,33.00
2018-12-06T23:39:53.160Z,30.03
2018-12-06T23:41:55.396Z,31.30
2018-12-06T23:43:57.510Z,28.77
2018-12-06T23:45:59.668Z,30.77
2018-12-06T23:48:01.912Z,25.97
2018-12-06T23:50:04.207Z,28.40
2018-12-06T23:52:07.121Z,31.57
2018-12-06T23:54:09.285Z,28.07
2018-12-06T23:56:11.528Z,30.00
2018-12-06T23:58:14.100Z,29.87
